Time;durP1;ratioP1;P1;durP2;ratioP2;P2;SDS_P1;SDS_P2;PMS_P1;PMS_P2;Temp;Humidity;BMP_temperature;BMP_pressure;BME280_temperature;BME280_humidity;BME280_pressure;Samples;Min_cycle;Max_cycle;Signal;HPM_P1;HPM_P2
2023/03/17 00:00:42;;;;;;;5.00;3.10;;;;;;;;;;5046998;28;20205;-78
2023/03/17 00:03:10;;;;;;;4.20;3.10;;;;;;;;;;5044759;28;20181;-78
2023/03/17 00:05:37;;;;;;;5.73;4.10;;;;;;;;;;5045858;28;20185;-78
2023/03/17 00:08:06;;;;;;;5.37;3.93;;;;;;;;;;5044935;28;20185;-78
2023/03/17 00:10:32;;;;;;;4.50;3.53;;;;;;;;;;5042863;28;20217;-77
2023/03/17 00:12:58;;;;;;;4.00;3.10;;;;;;;;;;5027503;28;20275;-78
2023/03/17 00:15:26;;;;;;;4.77;2.90;;;;;;;;;;5046070;28;20738;-77
2023/03/17 00:17:54;;;;;;;4.33;3.10;;;;;;;;;;5043946;28;20239;-78
2023/03/17 00:20:26;;;;;;;4.90;3.00;;;;;;;;;;5048287;28;20707;-78
2023/03/17 00:22:57;;;;;;;5.83;3.80;;;;;;;;;;5042512;28;20190;-78
2023/03/17 00:25:31;;;;;;;4.80;3.80;;;;;;;;;;5045944;28;20194;-78
2023/03/17 00:27:58;;;;;;;5.13;3.47;;;;;;;;;;5047197;28;20209;-78
2023/03/17 00:30:27;;;;;;;3.53;3.00;;;;;;;;;;5044758;28;20178;-78
2023/03/17 00:32:55;;;;;;;5.37;4.07;;;;;;;;;;5049231;28;20231;-78
2023/03/17 00:35:23;;;;;;;4.80;3.30;;;;;;;;;;5051400;28;20218;-78
2023/03/17 00:37:51;;;;;;;5.90;3.90;;;;;;;;;;5046799;28;20268;-77
2023/03/17 00:40:24;;;;;;;4.27;3.50;;;;;;;;;;5049501;28;20178;-77
2023/03/17 00:42:51;;;;;;;3.77;3.20;;;;;;;;;;5037829;28;20236;-78
2023/03/17 00:45:20;;;;;;;6.43;4.43;;;;;;;;;;5049665;28;20293;-77
2023/03/17 00:47:46;;;;;;;5.03;3.33;;;;;;;;;;5050223;28;20732;-77
2023/03/17 00:50:14;;;;;;;4.77;3.03;;;;;;;;;;5049473;28;20182;-77
2023/03/17 00:52:41;;;;;;;8.17;5.13;;;;;;;;;;5047442;28;20265;-78
2023/03/17 00:55:09;;;;;;;5.17;3.50;;;;;;;;;;5045919;28;20213;-79
2023/03/17 00:57:36;;;;;;;5.60;3.10;;;;;;;;;;5042583;28;20196;-78
2023/03/17 01:00:04;;;;;;;4.27;2.57;;;;;;;;;;5047669;28;20205;-78
2023/03/17 01:02:31;;;;;;;3.67;3.07;;;;;;;;;;5046205;28;20188;-78
2023/03/17 01:04:59;;;;;;;6.57;4.63;;;;;;;;;;5047906;28;20213;-77
2023/03/17 01:07:27;;;;;;;6.67;4.80;;;;;;;;;;5040356;28;20435;-78
2023/03/17 01:09:53;;;;;;;4.27;3.13;;;;;;;;;;5046498;28;20670;-77
2023/03/17 01:12:20;;;;;;;5.23;3.30;;;;;;;;;;5047611;28;20204;-77
2023/03/17 01:14:48;;;;;;;4.43;3.33;;;;;;;;;;5063001;28;20210;-77
2023/03/17 01:17:15;;;;;;;4.87;3.10;;;;;;;;;;5049324;28;20174;-78
2023/03/17 01:19:43;;;;;;;3.77;3.03;;;;;;;;;;5040932;28;20194;-78
2023/03/17 01:22:09;;;;;;;6.83;3.83;;;;;;;;;;5046860;28;20181;-77
2023/03/17 01:24:36;;;;;;;11.47;6.17;;;;;;;;;;5049271;28;20210;-78
2023/03/17 01:27:03;;;;;;;6.90;4.67;;;;;;;;;;5048239;28;20210;-78
2023/03/17 01:29:30;;;;;;;5.60;3.83;;;;;;;;;;5047419;28;20197;-78
2023/03/17 01:31:56;;;;;;;5.37;3.27;;;;;;;;;;5031388;28;20185;-78
2023/03/17 01:34:22;;;;;;;3.17;2.87;;;;;;;;;;5049054;28;20201;-78
2023/03/17 01:36:49;;;;;;;4.30;3.17;;;;;;;;;;5048900;28;20596;-78
2023/03/17 01:39:15;;;;;;;8.87;4.90;;;;;;;;;;5063587;28;20196;-77
2023/03/17 01:41:42;;;;;;;7.17;4.53;;;;;;;;;;5061760;28;20327;-78
2023/03/17 01:44:14;;;;;;;6.53;4.40;;;;;;;;;;5045156;28;20256;-78
2023/03/17 01:46:40;;;;;;;7.17;4.50;;;;;;;;;;5046461;28;21150;-78
2023/03/17 01:49:24;;;;;;;7.87;4.90;;;;;;;;;;5029939;28;20193;-78
2023/03/17 01:51:51;;;;;;;8.37;5.20;;;;;;;;;;5040717;28;20204;-78
2023/03/17 01:54:23;;;;;;;6.40;4.07;;;;;;;;;;5048214;28;20198;-78
2023/03/17 01:56:51;;;;;;;4.50;3.10;;;;;;;;;;5064388;28;20268;-79
2023/03/17 01:59:21;;;;;;;3.87;3.27;;;;;;;;;;5024824;28;20197;-78
2023/03/17 02:01:48;;;;;;;4.40;2.77;;;;;;;;;;5035317;28;20190;-78
2023/03/17 02:04:16;;;;;;;3.67;2.80;;;;;;;;;;5048623;28;20194;-78
2023/03/17 02:06:42;;;;;;;4.37;3.20;;;;;;;;;;5048630;28;20240;-78
2023/03/17 02:09:09;;;;;;;3.80;2.83;;;;;;;;;;5063876;28;20182;-77
2023/03/17 02:11:35;;;;;;;4.77;3.00;;;;;;;;;;5047694;28;20652;-78
2023/03/17 02:14:02;;;;;;;3.77;2.90;;;;;;;;;;5046252;28;20636;-78
2023/03/17 02:16:29;;;;;;;3.50;2.73;;;;;;;;;;5049390;28;20192;-78
2023/03/17 02:18:56;;;;;;;3.43;2.80;;;;;;;;;;5051663;28;20192;-78
2023/03/17 02:21:34;;;;;;;3.60;3.30;;;;;;;;;;5049522;28;20174;-78
2023/03/17 02:24:02;;;;;;;4.83;3.37;;;;;;;;;;5047130;28;20732;-78
2023/03/17 02:26:30;;;;;;;4.07;2.93;;;;;;;;;;5048489;28;20285;-78
2023/03/17 02:28:56;;;;;;;6.43;3.73;;;;;;;;;;5050043;28;20657;-78
2023/03/17 02:31:24;;;;;;;5.27;3.93;;;;;;;;;;5064254;28;20184;-78
2023/03/17 02:33:51;;;;;;;7.30;5.10;;;;;;;;;;5048357;28;20205;-78
2023/03/17 02:36:18;;;;;;;5.17;4.60;;;;;;;;;;5046345;28;20183;-78
2023/03/17 02:38:46;;;;;;;4.80;4.10;;;;;;;;;;5048339;28;20185;-78
2023/03/17 02:41:12;;;;;;;4.80;3.90;;;;;;;;;;5031085;28;20703;-78
2023/03/17 02:43:40;;;;;;;4.70;3.93;;;;;;;;;;5046706;28;20215;-77
2023/03/17 02:46:06;;;;;;;5.23;4.20;;;;;;;;;;5046076;28;20229;-77
2023/03/17 02:48:34;;;;;;;5.37;4.10;;;;;;;;;;5046259;28;20186;-78
2023/03/17 02:51:00;;;;;;;5.47;4.33;;;;;;;;;;5047933;28;20216;-78
2023/03/17 02:53:26;;;;;;;6.53;4.57;;;;;;;;;;5049323;28;20175;-78
2023/03/17 02:55:52;;;;;;;6.00;4.50;;;;;;;;;;5046641;28;20197;-77
2023/03/17 02:58:18;;;;;;;7.00;4.67;;;;;;;;;;5048008;28;20178;-77
2023/03/17 03:00:44;;;;;;;6.90;4.87;;;;;;;;;;5045910;28;20189;-78
2023/03/17 03:03:11;;;;;;;5.70;4.50;;;;;;;;;;5046341;28;20174;-77
2023/03/17 03:05:37;;;;;;;5.43;4.80;;;;;;;;;;5030907;28;20210;-78
2023/03/17 03:08:03;;;;;;;5.53;4.50;;;;;;;;;;5045572;28;20182;-78
2023/03/17 03:10:29;;;;;;;5.50;4.73;;;;;;;;;;5043799;28;20206;-78
2023/03/17 03:12:56;;;;;;;5.47;4.90;;;;;;;;;;5045509;28;20186;-78
2023/03/17 03:15:22;;;;;;;6.83;5.37;;;;;;;;;;5046059;28;20197;-78
2023/03/17 03:17:48;;;;;;;7.27;5.87;;;;;;;;;;5045648;28;20241;-77
2023/03/17 03:20:15;;;;;;;6.13;5.00;;;;;;;;;;5037195;28;20233;-78
2023/03/17 03:22:41;;;;;;;7.17;5.27;;;;;;;;;;5046497;28;20181;-77
2023/03/17 03:25:07;;;;;;;8.77;5.70;;;;;;;;;;5043301;28;20278;-77
2023/03/17 03:27:34;;;;;;;10.30;6.17;;;;;;;;;;5048900;28;20213;-77
2023/03/17 03:30:00;;;;;;;6.17;5.20;;;;;;;;;;5046377;28;20319;-78
2023/03/17 03:32:26;;;;;;;8.10;6.00;;;;;;;;;;5046871;28;20268;-77
2023/03/17 03:34:52;;;;;;;7.20;5.80;;;;;;;;;;5048066;28;20197;-78
2023/03/17 03:37:19;;;;;;;8.13;6.00;;;;;;;;;;5046487;28;20240;-77
2023/03/17 03:39:46;;;;;;;8.13;5.37;;;;;;;;;;5046226;28;20247;-77
2023/03/17 03:42:12;;;;;;;6.20;5.20;;;;;;;;;;5063191;28;20193;-78
2023/03/17 03:44:38;;;;;;;8.23;5.67;;;;;;;;;;5047775;28;20198;-78
2023/03/17 03:47:05;;;;;;;6.17;5.20;;;;;;;;;;5048349;28;20192;-77
2023/03/17 03:49:31;;;;;;;6.70;5.23;;;;;;;;;;5046950;28;20209;-78
2023/03/17 03:51:57;;;;;;;7.63;5.07;;;;;;;;;;5047414;28;20576;-78
2023/03/17 03:54:23;;;;;;;6.50;5.17;;;;;;;;;;5029876;28;20202;-78
2023/03/17 03:56:49;;;;;;;6.43;5.27;;;;;;;;;;5048127;28;20204;-78
2023/03/17 03:59:16;;;;;;;8.33;5.40;;;;;;;;;;5013538;28;20235;-78
2023/03/17 04:01:42;;;;;;;7.57;5.50;;;;;;;;;;5030084;28;20265;-77
2023/03/17 04:04:08;;;;;;;7.47;5.33;;;;;;;;;;5046199;28;20672;-78
2023/03/17 04:06:34;;;;;;;7.40;6.20;;;;;;;;;;5050814;28;20205;-78
2023/03/17 04:09:01;;;;;;;7.70;5.50;;;;;;;;;;5059614;28;20235;-77
2023/03/17 04:11:27;;;;;;;7.83;5.50;;;;;;;;;;5049946;28;20197;-78
2023/03/17 04:13:53;;;;;;;7.77;5.40;;;;;;;;;;5052420;28;20555;-78
2023/03/17 04:16:19;;;;;;;7.77;6.03;;;;;;;;;;5051792;28;20182;-78
2023/03/17 04:18:45;;;;;;;7.03;5.90;;;;;;;;;;5034037;28;20193;-76
2023/03/17 04:21:12;;;;;;;8.53;5.50;;;;;;;;;;5059231;28;20186;-78
2023/03/17 04:23:38;;;;;;;8.40;6.17;;;;;;;;;;5050496;28;20209;-77
2023/03/17 04:26:05;;;;;;;7.70;5.60;;;;;;;;;;5051288;28;20205;-77
2023/03/17 04:28:31;;;;;;;6.43;5.23;;;;;;;;;;5051393;28;20169;-77
2023/03/17 04:30:57;;;;;;;7.43;6.07;;;;;;;;;;5049478;28;20564;-78
2023/03/17 04:33:23;;;;;;;12.83;7.60;;;;;;;;;;5048756;28;20201;-78
2023/03/17 04:35:49;;;;;;;10.57;7.20;;;;;;;;;;5031817;28;20166;-77
2023/03/17 04:38:15;;;;;;;10.03;6.73;;;;;;;;;;5045887;28;20200;-78
2023/03/17 04:40:42;;;;;;;9.53;7.47;;;;;;;;;;5047732;28;20178;-77
2023/03/17 04:43:09;;;;;;;9.37;6.30;;;;;;;;;;5049376;28;20444;-76
2023/03/17 04:45:36;;;;;;;9.50;6.67;;;;;;;;;;5049241;28;20236;-78
2023/03/17 04:48:02;;;;;;;8.05;6.47;;;;;;;;;;5048006;28;20439;-77
2023/03/17 04:50:28;;;;;;;9.20;6.37;;;;;;;;;;5049177;28;20688;-78
2023/03/17 04:52:54;;;;;;;9.73;6.73;;;;;;;;;;5047106;28;20281;-76
2023/03/17 04:55:20;;;;;;;9.00;6.00;;;;;;;;;;5064924;28;20194;-77
2023/03/17 04:57:47;;;;;;;7.97;5.47;;;;;;;;;;5048298;28;20710;-77
2023/03/17 05:00:14;;;;;;;7.80;5.73;;;;;;;;;;5048915;28;20209;-77
2023/03/17 05:02:40;;;;;;;8.47;5.87;;;;;;;;;;5063735;28;20231;-76
2023/03/17 05:05:07;;;;;;;8.10;6.50;;;;;;;;;;5048309;28;20282;-77
2023/03/17 05:07:33;;;;;;;12.50;7.13;;;;;;;;;;5047868;28;20256;-78
2023/03/17 05:09:59;;;;;;;9.53;6.40;;;;;;;;;;5054146;28;20209;-78
2023/03/17 05:12:25;;;;;;;10.13;6.67;;;;;;;;;;5051507;28;20637;-77
2023/03/17 05:14:51;;;;;;;9.07;6.90;;;;;;;;;;5047761;28;20213;-77
2023/03/17 05:17:18;;;;;;;8.87;6.07;;;;;;;;;;5048369;28;20280;-77
2023/03/17 05:19:44;;;;;;;9.00;6.73;;;;;;;;;;5049074;28;20239;-77
2023/03/17 05:22:10;;;;;;;8.10;6.23;;;;;;;;;;5048409;28;20193;-77
2023/03/17 05:24:36;;;;;;;9.50;6.67;;;;;;;;;;5051121;28;20201;-77
2023/03/17 05:27:02;;;;;;;12.83;7.37;;;;;;;;;;5026286;28;20206;-77
2023/03/17 05:29:28;;;;;;;8.80;6.07;;;;;;;;;;5047621;28;20190;-77
2023/03/17 05:31:55;;;;;;;8.50;5.80;;;;;;;;;;5048518;28;20908;-76
2023/03/17 05:34:21;;;;;;;8.63;6.67;;;;;;;;;;5047814;28;20202;-78
2023/03/17 05:36:47;;;;;;;9.27;7.17;;;;;;;;;;5031739;28;20182;-77
2023/03/17 05:39:13;;;;;;;11.10;7.13;;;;;;;;;;5048666;28;20181;-78
2023/03/17 05:41:39;;;;;;;10.97;7.03;;;;;;;;;;5044412;28;20210;-77
2023/03/17 05:44:06;;;;;;;10.77;7.50;;;;;;;;;;5028880;28;20297;-77
2023/03/17 05:46:32;;;;;;;8.83;6.73;;;;;;;;;;5049481;28;20297;-78
2023/03/17 05:48:58;;;;;;;9.80;6.50;;;;;;;;;;5048726;28;20182;-77
2023/03/17 05:51:24;;;;;;;10.73;6.97;;;;;;;;;;5047698;28;20192;-77
2023/03/17 05:53:50;;;;;;;10.73;7.30;;;;;;;;;;5049215;28;20536;-77
2023/03/17 05:56:16;;;;;;;11.80;7.20;;;;;;;;;;5047509;28;20713;-77
2023/03/17 05:58:42;;;;;;;9.27;6.83;;;;;;;;;;5047615;28;20201;-77
2023/03/17 06:01:09;;;;;;;9.50;6.53;;;;;;;;;;5046824;28;20194;-78
2023/03/17 06:03:37;;;;;;;9.57;6.93;;;;;;;;;;5043518;28;20553;-77
2023/03/17 06:06:04;;;;;;;8.77;7.33;;;;;;;;;;5046888;28;20264;-76
2023/03/17 06:08:30;;;;;;;8.17;6.93;;;;;;;;;;5048120;28;20178;-78
2023/03/17 06:10:57;;;;;;;10.40;7.07;;;;;;;;;;5051179;28;20181;-77
2023/03/17 06:13:23;;;;;;;7.80;6.57;;;;;;;;;;5046047;28;20201;-77
2023/03/17 06:15:53;;;;;;;9.33;7.17;;;;;;;;;;5057090;28;20232;-77
2023/03/17 06:18:19;;;;;;;8.47;6.60;;;;;;;;;;5041220;28;20181;-78
2023/03/17 06:20:45;;;;;;;11.23;7.27;;;;;;;;;;5030512;28;20217;-77
2023/03/17 06:23:11;;;;;;;9.07;7.03;;;;;;;;;;5047864;28;20219;-77
2023/03/17 06:25:38;;;;;;;10.27;7.47;;;;;;;;;;5047916;28;20260;-76
2023/03/17 06:28:04;;;;;;;9.23;7.57;;;;;;;;;;5046844;28;20221;-76
2023/03/17 06:30:32;;;;;;;9.33;7.23;;;;;;;;;;5047943;28;20284;-79
2023/03/17 06:32:58;;;;;;;8.97;7.00;;;;;;;;;;5035077;28;20599;-81
2023/03/17 06:35:24;;;;;;;12.07;7.57;;;;;;;;;;5028236;28;20206;-78
2023/03/17 06:37:51;;;;;;;9.17;7.13;;;;;;;;;;5048448;28;20269;-79
2023/03/17 06:40:17;;;;;;;10.33;7.67;;;;;;;;;;5016180;28;20189;-75
2023/03/17 06:42:43;;;;;;;9.83;7.50;;;;;;;;;;5047851;28;20178;-78
2023/03/17 06:45:09;;;;;;;8.13;6.43;;;;;;;;;;5050112;28;20193;-76
2023/03/17 06:47:36;;;;;;;9.53;7.13;;;;;;;;;;5054038;28;20202;-82
2023/03/17 06:50:03;;;;;;;8.80;6.83;;;;;;;;;;5030712;28;20181;-82
2023/03/17 06:52:30;;;;;;;8.53;6.57;;;;;;;;;;5016274;28;20221;-82
2023/03/17 06:54:56;;;;;;;9.40;7.07;;;;;;;;;;5066931;28;20229;-81
2023/03/17 06:57:22;;;;;;;10.47;7.80;;;;;;;;;;5047154;28;20193;-81
2023/03/17 06:59:48;;;;;;;12.47;7.77;;;;;;;;;;5030318;28;20205;-82
2023/03/17 07:02:14;;;;;;;12.40;8.10;;;;;;;;;;5034527;28;20186;-82
2023/03/17 07:04:41;;;;;;;11.80;8.13;;;;;;;;;;5048602;28;20202;-82
2023/03/17 07:07:07;;;;;;;13.20;9.30;;;;;;;;;;5012895;28;20210;-82
2023/03/17 07:09:34;;;;;;;12.87;8.97;;;;;;;;;;5048626;28;20182;-83
2023/03/17 07:12:03;;;;;;;11.00;8.03;;;;;;;;;;5044324;28;20189;-82
2023/03/17 07:14:35;;;;;;;10.23;7.70;;;;;;;;;;5052622;28;20216;-82
2023/03/17 07:17:05;;;;;;;13.43;8.30;;;;;;;;;;5025809;28;20239;-82
2023/03/17 07:19:33;;;;;;;11.33;8.00;;;;;;;;;;5042102;28;20182;-81
2023/03/17 07:22:00;;;;;;;10.17;7.80;;;;;;;;;;5049338;28;20684;-82
2023/03/17 07:24:28;;;;;;;10.70;8.03;;;;;;;;;;5050412;28;20273;-82
2023/03/17 07:26:54;;;;;;;10.03;7.60;;;;;;;;;;5045558;28;20209;-82
2023/03/17 07:29:21;;;;;;;9.70;7.70;;;;;;;;;;5043639;28;20265;-82
2023/03/17 07:31:48;;;;;;;10.47;7.73;;;;;;;;;;5048527;28;20177;-82
2023/03/17 07:34:14;;;;;;;8.20;6.97;;;;;;;;;;5046682;28;20198;-82
2023/03/17 07:36:40;;;;;;;10.77;8.20;;;;;;;;;;5027530;28;20190;-82
2023/03/17 07:39:07;;;;;;;9.03;7.30;;;;;;;;;;5046972;28;20194;-82
2023/03/17 07:41:33;;;;;;;9.03;7.27;;;;;;;;;;5051134;28;20188;-80
2023/03/17 07:44:00;;;;;;;10.27;7.10;;;;;;;;;;5043920;28;20210;-82
2023/03/17 07:46:26;;;;;;;10.43;7.43;;;;;;;;;;5030062;28;20201;-80
2023/03/17 07:48:53;;;;;;;11.07;7.07;;;;;;;;;;5047355;28;20214;-82
2023/03/17 07:51:21;;;;;;;11.13;7.67;;;;;;;;;;5030303;28;20240;-83
2023/03/17 07:53:48;;;;;;;10.00;6.93;;;;;;;;;;5042598;28;20561;-82
2023/03/17 07:56:16;;;;;;;8.90;7.50;;;;;;;;;;5047475;28;20182;-82
2023/03/17 07:58:43;;;;;;;8.57;6.53;;;;;;;;;;5048744;28;20209;-82
2023/03/17 08:01:10;;;;;;;9.97;6.83;;;;;;;;;;5052958;28;20213;-82
2023/03/17 08:03:37;;;;;;;8.93;7.20;;;;;;;;;;5044383;28;20212;-82
2023/03/17 08:06:05;;;;;;;12.40;7.37;;;;;;;;;;5021468;28;20178;-82
2023/03/17 08:08:31;;;;;;;10.27;7.80;;;;;;;;;;5048710;28;20729;-82
2023/03/17 08:14:27;;;;;;;8.43;7.27;;;;;;;;;;5042098;28;20692;-82
2023/03/17 08:16:54;;;;;;;7.90;7.00;;;;;;;;;;5050639;28;20193;-82
2023/03/17 08:19:21;;;;;;;8.23;7.33;;;;;;;;;;5050884;28;20277;-81
2023/03/17 08:21:47;;;;;;;9.07;7.50;;;;;;;;;;5050959;28;20650;-82
2023/03/17 08:24:14;;;;;;;9.50;7.40;;;;;;;;;;5031041;28;20209;-82
2023/03/17 08:26:40;;;;;;;8.87;7.33;;;;;;;;;;5049476;28;20209;-82
2023/03/17 08:29:06;;;;;;;10.77;8.10;;;;;;;;;;5044138;28;20198;-80
2023/03/17 08:31:33;;;;;;;8.93;7.93;;;;;;;;;;5047594;28;20257;-81
2023/03/17 08:34:01;;;;;;;9.27;7.80;;;;;;;;;;5049114;28;20277;-81
2023/03/17 08:36:27;;;;;;;9.50;7.40;;;;;;;;;;5049562;28;20289;-82
2023/03/17 08:38:54;;;;;;;9.03;8.13;;;;;;;;;;5051006;28;20182;-82
2023/03/17 08:41:22;;;;;;;9.13;7.67;;;;;;;;;;5049437;28;20186;-82
2023/03/17 08:43:49;;;;;;;8.73;7.27;;;;;;;;;;5049996;28;20217;-82
2023/03/17 08:46:20;;;;;;;8.77;7.47;;;;;;;;;;5049952;28;20581;-81
2023/03/17 08:48:47;;;;;;;8.23;7.20;;;;;;;;;;5046173;28;20186;-79
2023/03/17 08:51:14;;;;;;;8.00;6.90;;;;;;;;;;5052886;28;20206;-78
2023/03/17 08:53:41;;;;;;;9.30;7.33;;;;;;;;;;5051386;28;20202;-81
2023/03/17 08:56:07;;;;;;;8.70;6.80;;;;;;;;;;5052582;28;20193;-80
2023/03/17 08:58:34;;;;;;;9.80;6.80;;;;;;;;;;5034041;28;20194;-80
2023/03/17 09:01:01;;;;;;;8.40;6.90;;;;;;;;;;5050320;28;20192;-79
2023/03/17 09:03:28;;;;;;;11.43;7.00;;;;;;;;;;5049673;28;20186;-77
2023/03/17 09:05:54;;;;;;;9.50;7.10;;;;;;;;;;5048479;28;20224;-78
2023/03/17 09:08:21;;;;;;;12.57;7.47;;;;;;;;;;5051199;28;20188;-79
2023/03/17 09:10:47;;;;;;;8.90;6.70;;;;;;;;;;5049355;28;20186;-78
2023/03/17 09:13:15;;;;;;;7.50;6.57;;;;;;;;;;5051838;28;20277;-78
2023/03/17 09:15:41;;;;;;;9.13;6.77;;;;;;;;;;5051834;28;20757;-78
2023/03/17 09:18:08;;;;;;;7.70;6.37;;;;;;;;;;5048125;28;20261;-78
2023/03/17 09:20:35;;;;;;;8.87;7.67;;;;;;;;;;5047689;28;20241;-75
2023/03/17 09:23:05;;;;;;;8.33;7.43;;;;;;;;;;5045647;28;20284;-77
2023/03/17 09:25:31;;;;;;;7.50;6.70;;;;;;;;;;5025881;28;20209;-76
2023/03/17 09:27:57;;;;;;;8.63;7.73;;;;;;;;;;5059276;28;20704;-77
2023/03/17 09:30:25;;;;;;;8.20;7.33;;;;;;;;;;5045767;28;20193;-76
2023/03/17 09:32:52;;;;;;;8.60;6.97;;;;;;;;;;5047035;28;20265;-76
2023/03/17 09:35:19;;;;;;;11.60;7.47;;;;;;;;;;5032067;28;20916;-76
2023/03/17 09:37:46;;;;;;;11.20;7.40;;;;;;;;;;5034063;28;20190;-75
2023/03/17 09:40:16;;;;;;;9.73;7.20;;;;;;;;;;5050739;28;20185;-76
2023/03/17 09:42:54;;;;;;;10.10;7.30;;;;;;;;;;5051856;28;20269;-76
2023/03/17 09:45:30;;;;;;;9.10;7.37;;;;;;;;;;5046661;28;20209;-76
2023/03/17 09:48:18;;;;;;;9.00;7.27;;;;;;;;;;5048186;28;20210;-76
2023/03/17 09:51:03;;;;;;;8.73;7.53;;;;;;;;;;5047915;28;20658;-76
2023/03/17 09:53:34;;;;;;;9.40;7.07;;;;;;;;;;5042974;28;20218;-76
2023/03/17 09:56:21;;;;;;;10.67;7.60;;;;;;;;;;5044536;28;20205;-76
2023/03/17 09:58:56;;;;;;;11.57;8.50;;;;;;;;;;5047960;28;20193;-76
2023/03/17 10:01:23;;;;;;;7.73;6.80;;;;;;;;;;5046771;28;20192;-76
2023/03/17 10:03:49;;;;;;;9.30;6.90;;;;;;;;;;5045315;28;20203;-76
2023/03/17 10:06:37;;;;;;;7.17;6.27;;;;;;;;;;5049626;28;20615;-76
2023/03/17 10:09:07;;;;;;;7.23;6.37;;;;;;;;;;5045304;28;20264;-76
2023/03/17 10:11:37;;;;;;;9.57;6.20;;;;;;;;;;5047163;28;20181;-75
2023/03/17 10:14:08;;;;;;;8.87;6.63;;;;;;;;;;5030617;28;20231;-76
2023/03/17 10:16:45;;;;;;;12.77;6.40;;;;;;;;;;5034394;28;20185;-76
2023/03/17 10:19:22;;;;;;;6.97;6.00;;;;;;;;;;5048370;28;20182;-76
2023/03/17 10:21:57;;;;;;;7.60;6.40;;;;;;;;;;5051076;28;20711;-76
2023/03/17 10:24:24;;;;;;;7.70;6.40;;;;;;;;;;5042208;28;20198;-76
2023/03/17 10:26:52;;;;;;;10.87;6.73;;;;;;;;;;5046919;28;20212;-76
2023/03/17 10:29:22;;;;;;;7.73;5.80;;;;;;;;;;5048389;28;20291;-76
2023/03/17 10:31:49;;;;;;;7.13;5.50;;;;;;;;;;5046395;28;20183;-76
2023/03/17 10:34:17;;;;;;;6.23;5.30;;;;;;;;;;5047045;28;20255;-77
2023/03/17 10:36:49;;;;;;;8.27;5.60;;;;;;;;;;5032146;28;20538;-76
2023/03/17 10:39:20;;;;;;;7.63;5.47;;;;;;;;;;5054741;28;20185;-76
2023/03/17 10:41:59;;;;;;;6.67;6.03;;;;;;;;;;5030541;28;20267;-77
2023/03/17 10:44:29;;;;;;;8.40;6.07;;;;;;;;;;5039644;28;20206;-76
2023/03/17 10:46:55;;;;;;;7.70;6.00;;;;;;;;;;5046186;28;20234;-76
2023/03/17 10:49:23;;;;;;;6.07;5.07;;;;;;;;;;5047565;28;20169;-77
2023/03/17 10:51:54;;;;;;;6.87;5.60;;;;;;;;;;5050702;28;20196;-76
2023/03/17 10:54:23;;;;;;;6.07;5.30;;;;;;;;;;5047710;28;20676;-79
2023/03/17 10:56:50;;;;;;;7.93;6.03;;;;;;;;;;5045140;28;20677;-77
2023/03/17 10:59:25;;;;;;;7.37;5.67;;;;;;;;;;5047490;28;20178;-77
2023/03/17 11:01:53;;;;;;;8.17;5.63;;;;;;;;;;5043858;28;20185;-77
2023/03/17 11:04:26;;;;;;;7.97;5.80;;;;;;;;;;5042800;28;20213;-77
2023/03/17 11:06:54;;;;;;;7.67;5.60;;;;;;;;;;5046719;28;20221;-77
2023/03/17 11:09:21;;;;;;;8.80;5.23;;;;;;;;;;5046488;28;20182;-77
2023/03/17 11:11:48;;;;;;;7.00;5.00;;;;;;;;;;5012919;28;20177;-76
2023/03/17 11:14:18;;;;;;;5.60;5.00;;;;;;;;;;5044823;28;20220;-77
2023/03/17 11:17:05;;;;;;;5.20;4.43;;;;;;;;;;5025913;28;20182;-77
2023/03/17 11:19:34;;;;;;;7.00;4.40;;;;;;;;;;5015106;28;20208;-77
2023/03/17 11:22:05;;;;;;;6.60;4.63;;;;;;;;;;5031020;28;20182;-77
2023/03/17 11:24:32;;;;;;;6.13;4.60;;;;;;;;;;5029346;28;20204;-77
2023/03/17 11:27:00;;;;;;;6.57;4.17;;;;;;;;;;5044716;28;20448;-77
2023/03/17 11:29:38;;;;;;;6.80;4.30;;;;;;;;;;5062823;28;20236;-77
2023/03/17 11:32:19;;;;;;;9.50;4.87;;;;;;;;;;5049917;28;20182;-77
2023/03/17 11:34:46;;;;;;;6.63;4.93;;;;;;;;;;5049657;28;20289;-77
2023/03/17 11:37:18;;;;;;;6.30;4.60;;;;;;;;;;5044457;28;20189;-77
2023/03/17 11:39:45;;;;;;;7.53;4.83;;;;;;;;;;5045828;28;20191;-77
2023/03/17 11:42:19;;;;;;;6.23;4.77;;;;;;;;;;5045152;28;20186;-77
2023/03/17 11:44:51;;;;;;;5.70;4.37;;;;;;;;;;5044225;28;20200;-78
2023/03/17 11:47:18;;;;;;;6.20;4.33;;;;;;;;;;5037927;28;20208;-75
2023/03/17 11:49:46;;;;;;;7.73;4.63;;;;;;;;;;5045151;28;20190;-77
2023/03/17 11:52:25;;;;;;;7.10;4.57;;;;;;;;;;5029065;28;20189;-79
2023/03/17 11:54:57;;;;;;;6.17;4.33;;;;;;;;;;5042020;28;20685;-77
2023/03/17 11:57:42;;;;;;;5.93;4.70;;;;;;;;;;5043399;28;20182;-76
2023/03/17 12:00:25;;;;;;;8.17;4.80;;;;;;;;;;5036980;28;20201;-78
2023/03/17 12:03:14;;;;;;;5.23;4.43;;;;;;;;;;5040489;28;20189;-76
2023/03/17 12:05:41;;;;;;;6.90;4.83;;;;;;;;;;5030899;28;20672;-78
2023/03/17 12:08:11;;;;;;;7.33;4.53;;;;;;;;;;5046515;28;20692;-76
2023/03/17 12:10:49;;;;;;;5.53;4.47;;;;;;;;;;5035632;28;20426;-78
2023/03/17 12:13:24;;;;;;;6.10;4.70;;;;;;;;;;5024585;28;20265;-78
2023/03/17 12:15:52;;;;;;;6.50;4.60;;;;;;;;;;5046658;28;20272;-77
2023/03/17 12:18:29;;;;;;;6.57;4.03;;;;;;;;;;5041921;28;20194;-73
2023/03/17 12:21:03;;;;;;;6.80;4.40;;;;;;;;;;5020581;28;20197;-74
2023/03/17 12:23:37;;;;;;;7.07;4.40;;;;;;;;;;5031765;28;20178;-74
2023/03/17 12:26:06;;;;;;;6.67;4.73;;;;;;;;;;5040612;28;20716;-74
2023/03/17 12:28:36;;;;;;;7.97;4.60;;;;;;;;;;5026363;28;20247;-74
2023/03/17 12:31:07;;;;;;;5.90;4.30;;;;;;;;;;5044161;28;20190;-74
2023/03/17 12:33:36;;;;;;;5.37;4.43;;;;;;;;;;5044302;28;20244;-74
2023/03/17 12:36:03;;;;;;;4.70;4.00;;;;;;;;;;5045769;28;20177;-74
2023/03/17 12:38:37;;;;;;;7.73;4.27;;;;;;;;;;5047380;28;20224;-74
2023/03/17 12:41:09;;;;;;;4.10;3.50;;;;;;;;;;5038955;28;20185;-74
2023/03/17 12:43:38;;;;;;;3.93;3.53;;;;;;;;;;5026672;28;20206;-75
2023/03/17 12:46:18;;;;;;;5.33;3.73;;;;;;;;;;5049966;28;20186;-75
2023/03/17 12:49:03;;;;;;;4.03;3.47;;;;;;;;;;5045057;28;20265;-77
2023/03/17 12:51:44;;;;;;;6.97;3.73;;;;;;;;;;5047529;28;20206;-76
2023/03/17 12:54:20;;;;;;;5.50;4.20;;;;;;;;;;5039024;28;20216;-76
2023/03/17 12:56:46;;;;;;;7.23;4.60;;;;;;;;;;5048693;28;20265;-76
2023/03/17 12:59:32;;;;;;;7.67;6.20;;;;;;;;;;5046223;28;20219;-76
2023/03/17 13:02:23;;;;;;;4.60;3.97;;;;;;;;;;5062477;28;20374;-76
2023/03/17 13:04:56;;;;;;;4.40;3.70;;;;;;;;;;5054416;28;21048;-76
2023/03/17 13:07:25;;;;;;;4.43;3.57;;;;;;;;;;5046173;28;20201;-76
2023/03/17 13:09:55;;;;;;;5.20;3.93;;;;;;;;;;5049041;28;20208;-76
2023/03/17 13:12:43;;;;;;;5.50;3.87;;;;;;;;;;5046631;28;20685;-76
2023/03/17 13:15:22;;;;;;;5.03;3.97;;;;;;;;;;5039105;28;20420;-76
2023/03/17 13:17:48;;;;;;;4.93;4.00;;;;;;;;;;5045821;28;20251;-76
2023/03/17 13:20:17;;;;;;;7.57;4.10;;;;;;;;;;5048962;28;20181;-76
2023/03/17 13:22:46;;;;;;;5.33;4.23;;;;;;;;;;5046018;28;20696;-76
2023/03/17 13:25:31;;;;;;;5.77;4.30;;;;;;;;;;5043414;28;20218;-76
2023/03/17 13:28:13;;;;;;;5.10;4.03;;;;;;;;;;5031542;28;20296;-76
2023/03/17 13:30:40;;;;;;;4.97;4.30;;;;;;;;;;5043618;28;20171;-76
2023/03/17 13:33:09;;;;;;;5.27;3.87;;;;;;;;;;5045614;28;20194;-76
2023/03/17 13:35:36;;;;;;;6.60;4.20;;;;;;;;;;5031530;28;20210;-77
2023/03/17 13:38:02;;;;;;;6.13;4.03;;;;;;;;;;5038898;28;20189;-77
2023/03/17 13:40:47;;;;;;;5.73;4.43;;;;;;;;;;5043213;28;20744;-77
2023/03/17 13:43:33;;;;;;;6.67;4.00;;;;;;;;;;5044508;28;20276;-77
2023/03/17 13:46:35;;;;;;;6.50;4.10;;;;;;;;;;5037620;28;20181;-77
2023/03/17 13:49:03;;;;;;;4.57;3.77;;;;;;;;;;4999415;28;20201;-77
2023/03/17 13:51:33;;;;;;;5.97;4.00;;;;;;;;;;5038817;28;20283;-76
2023/03/17 13:54:20;;;;;;;7.27;3.87;;;;;;;;;;5049143;28;20240;-76
2023/03/17 13:56:51;;;;;;;6.87;4.33;;;;;;;;;;5046319;28;20251;-74
2023/03/17 13:59:18;;;;;;;4.90;3.80;;;;;;;;;;5041672;28;20709;-74
2023/03/17 14:01:51;;;;;;;9.47;4.20;;;;;;;;;;5044165;28;20267;-74
2023/03/17 14:04:19;;;;;;;5.03;3.63;;;;;;;;;;5049659;28;20213;-74
2023/03/17 14:06:46;;;;;;;7.67;4.10;;;;;;;;;;5041515;28;20202;-73
2023/03/17 14:09:21;;;;;;;5.87;4.30;;;;;;;;;;5059585;28;20193;-74
2023/03/17 14:11:47;;;;;;;6.73;4.10;;;;;;;;;;5042166;28;20193;-73
2023/03/17 14:14:13;;;;;;;5.70;3.93;;;;;;;;;;5040995;28;20201;-73
2023/03/17 14:16:44;;;;;;;5.60;4.03;;;;;;;;;;5046038;28;20284;-73
2023/03/17 14:19:17;;;;;;;6.33;4.00;;;;;;;;;;5046685;28;20249;-74
2023/03/17 14:21:44;;;;;;;5.07;3.60;;;;;;;;;;5041637;28;20193;-74
2023/03/17 14:24:23;;;;;;;3.97;3.50;;;;;;;;;;5042818;28;20202;-73
2023/03/17 14:26:50;;;;;;;7.60;4.13;;;;;;;;;;5047442;28;20682;-73
2023/03/17 14:29:18;;;;;;;7.03;4.90;;;;;;;;;;5049045;28;20197;-73
2023/03/17 14:31:58;;;;;;;8.43;6.47;;;;;;;;;;5047731;28;20209;-73
2023/03/17 14:34:24;;;;;;;7.47;5.80;;;;;;;;;;5029858;28;20224;-73
2023/03/17 14:36:51;;;;;;;6.87;4.80;;;;;;;;;;5047152;28;20205;-73
2023/03/17 14:39:21;;;;;;;6.17;4.47;;;;;;;;;;5046715;28;20555;-73
2023/03/17 14:41:57;;;;;;;5.57;4.17;;;;;;;;;;5048307;28;20306;-73
2023/03/17 14:44:23;;;;;;;4.97;4.20;;;;;;;;;;5046198;28;20255;-73
2023/03/17 14:46:49;;;;;;;5.77;4.20;;;;;;;;;;5044335;28;20581;-73
2023/03/17 14:49:16;;;;;;;7.43;3.80;;;;;;;;;;5054027;28;20190;-74
2023/03/17 14:51:43;;;;;;;5.30;3.60;;;;;;;;;;5044968;28;20194;-73
2023/03/17 14:54:18;;;;;;;5.70;3.53;;;;;;;;;;5050553;28;20209;-73